Time;durP1;ratioP1;P1;durP2;ratioP2;P2;SDS_P1;SDS_P2;PMS_P1;PMS_P2;Temp;Humidity;BMP_temperature;BMP_pressure;BME280_temperature;BME280_humidity;BME280_pressure;Samples;Min_cycle;Max_cycle;Signal;HPM_P1;HPM_P2
2021/04/20 00:01:21;;;;;;;46.00;30.00;;;8.70;99.90;;;;;;5020068;28;20190;-68
2021/04/20 00:03:48;;;;;;;49.17;31.50;;;8.60;99.90;;;;;;5030407;28;20201;-67
2021/04/20 00:06:14;;;;;;;51.20;31.50;;;8.50;99.90;;;;;;5036348;28;20194;-68
2021/04/20 00:08:40;;;;;;;50.90;33.17;;;8.40;99.90;;;;;;5013805;28;20421;-68
2021/04/20 00:11:06;;;;;;;50.97;32.90;;;8.30;99.90;;;;;;5030095;28;20200;-68
2021/04/20 00:13:32;;;;;;;48.17;30.90;;;8.30;99.90;;;;;;5023732;28;20244;-68
2021/04/20 00:15:58;;;;;;;52.17;33.20;;;8.30;99.90;;;;;;5033565;28;20531;-68
2021/04/20 00:18:24;;;;;;;52.13;32.30;;;8.20;99.90;;;;;;5030203;28;20495;-68
2021/04/20 00:20:50;;;;;;;46.80;31.60;;;8.20;99.90;;;;;;5029398;28;20440;-67
2021/04/20 00:23:15;;;;;;;47.33;31.43;;;8.20;99.90;;;;;;5030244;28;20526;-67
2021/04/20 00:25:41;;;;;;;48.33;30.60;;;8.10;99.90;;;;;;5030125;28;20186;-68
2021/04/20 00:28:07;;;;;;;51.17;31.00;;;8.10;99.90;;;;;;5029919;28;20193;-68
2021/04/20 00:30:33;;;;;;;48.30;31.80;;;8.10;99.90;;;;;;5030017;28;20233;-66
2021/04/20 00:32:59;;;;;;;55.70;33.20;;;8.10;99.90;;;;;;5020884;28;20241;-67
2021/04/20 00:35:24;;;;;;;53.80;32.73;;;8.00;99.90;;;;;;5030446;28;20447;-68
2021/04/20 00:37:50;;;;;;;56.07;34.90;;;8.00;99.90;;;;;;5027530;28;20190;-68
2021/04/20 00:40:17;;;;;;;56.40;33.87;;;8.00;99.90;;;;;;5028642;28;20584;-68
2021/04/20 00:42:54;;;;;;;56.00;32.63;;;8.00;99.90;;;;;;5029716;28;20220;-68
2021/04/20 00:45:29;;;;;;;50.77;33.10;;;8.00;99.90;;;;;;5029541;28;20479;-66
2021/04/20 00:47:55;;;;;;;55.33;34.10;;;8.00;99.90;;;;;;5027938;28;20467;-68
2021/04/20 00:50:26;;;;;;;57.17;34.70;;;8.00;99.90;;;;;;5030475;28;20503;-68
2021/04/20 00:52:52;;;;;;;56.13;33.80;;;8.00;99.90;;;;;;5043804;28;20489;-68
2021/04/20 00:55:17;;;;;;;62.90;36.00;;;7.90;99.90;;;;;;5026575;28;20489;-67
2021/04/20 00:57:43;;;;;;;58.07;33.73;;;7.90;99.90;;;;;;5028272;28;20448;-68
2021/04/20 01:00:12;;;;;;;51.17;31.90;;;7.90;99.90;;;;;;5030398;28;20200;-68
2021/04/20 01:02:38;;;;;;;52.90;34.60;;;7.80;99.90;;;;;;5021003;28;20190;-67
2021/04/20 01:05:09;;;;;;;55.47;33.27;;;7.80;99.90;;;;;;5028668;28;20946;-68
2021/04/20 01:07:35;;;;;;;58.67;31.90;;;7.90;99.90;;;;;;5044385;28;20190;-67
2021/04/20 01:10:03;;;;;;;60.30;34.73;;;7.80;99.90;;;;;;5025850;28;21031;-67
2021/04/20 01:12:29;;;;;;;57.17;33.60;;;7.90;99.90;;;;;;5028459;28;21025;-67
2021/04/20 01:14:56;;;;;;;61.67;35.70;;;7.90;99.90;;;;;;5033410;28;20527;-68
2021/04/20 01:17:28;;;;;;;70.03;36.27;;;8.00;99.90;;;;;;5028261;28;20538;-67
2021/04/20 01:19:58;;;;;;;52.30;33.10;;;8.00;99.90;;;;;;5012306;28;20533;-67
2021/04/20 01:22:27;;;;;;;68.97;37.80;;;8.00;99.90;;;;;;5028779;28;20475;-68
2021/04/20 01:24:53;;;;;;;64.07;36.03;;;8.00;99.90;;;;;;5029227;28;20522;-67
2021/04/20 01:27:18;;;;;;;62.23;36.90;;;8.00;99.90;;;;;;5027255;28;20455;-67
2021/04/20 01:29:44;;;;;;;63.23;36.33;;;8.10;99.90;;;;;;5026885;28;20472;-67
2021/04/20 01:32:10;;;;;;;57.77;33.27;;;8.10;99.90;;;;;;5026757;28;20222;-67
2021/04/20 01:34:35;;;;;;;56.50;34.20;;;8.20;99.90;;;;;;5027915;28;20200;-67
2021/04/20 01:37:01;;;;;;;52.50;33.70;;;8.20;99.90;;;;;;5029023;28;20578;-68
2021/04/20 01:39:26;;;;;;;53.67;32.93;;;8.30;99.90;;;;;;5026953;28;20194;-68
2021/04/20 01:41:52;;;;;;;61.20;36.57;;;8.30;99.90;;;;;;5028290;28;20178;-67
2021/04/20 01:44:18;;;;;;;64.63;35.20;;;8.30;99.90;;;;;;5027798;28;20948;-67
2021/04/20 01:46:44;;;;;;;54.30;35.70;;;8.40;99.90;;;;;;5028307;28;20440;-67
2021/04/20 01:49:10;;;;;;;59.00;35.80;;;8.40;99.90;;;;;;5025965;28;20552;-67
2021/04/20 01:51:35;;;;;;;54.67;35.60;;;8.40;99.90;;;;;;5027952;28;20494;-67
2021/04/20 01:54:01;;;;;;;57.77;36.70;;;8.40;99.90;;;;;;5027626;28;20605;-67
2021/04/20 01:56:29;;;;;;;54.50;33.40;;;8.40;99.90;;;;;;5027355;28;20939;-66
2021/04/20 01:58:55;;;;;;;54.67;35.03;;;8.40;99.90;;;;;;5028219;28;20189;-68
2021/04/20 02:01:25;;;;;;;63.30;34.27;;;8.40;99.90;;;;;;5028322;28;20472;-68
2021/04/20 02:03:51;;;;;;;56.43;34.73;;;8.40;99.90;;;;;;5028954;28;20437;-67
2021/04/20 02:06:18;;;;;;;56.13;35.50;;;8.40;99.90;;;;;;5028475;28;20443;-66
2021/04/20 02:08:45;;;;;;;59.70;35.77;;;8.40;99.90;;;;;;5044501;28;20451;-67
2021/04/20 02:11:13;;;;;;;64.97;37.50;;;8.50;99.90;;;;;;5027910;28;20533;-67
2021/04/20 02:13:39;;;;;;;56.80;34.10;;;8.60;99.90;;;;;;5028975;28;20503;-67
2021/04/20 02:16:06;;;;;;;51.13;33.60;;;8.50;99.90;;;;;;5026964;28;20444;-67
2021/04/20 02:18:59;;;;;;;50.83;32.10;;;8.50;99.90;;;;;;5025122;28;20997;-66
2021/04/20 02:21:25;;;;;;;57.43;32.73;;;8.40;99.90;;;;;;5026993;28;20941;-67
2021/04/20 02:23:52;;;;;;;52.60;32.50;;;8.40;99.90;;;;;;5031211;28;20531;-67
2021/04/20 02:26:38;;;;;;;56.47;34.53;;;8.40;99.90;;;;;;5046708;28;20463;-67
2021/04/20 02:29:06;;;;;;;60.43;35.10;;;8.40;99.90;;;;;;5031088;28;20569;-68
2021/04/20 02:31:40;;;;;;;52.13;34.63;;;8.40;99.90;;;;;;5032301;28;21049;-67
2021/04/20 02:34:08;;;;;;;58.93;35.67;;;8.40;99.90;;;;;;5031158;28;20940;-68
2021/04/20 02:36:42;;;;;;;56.23;34.60;;;8.40;99.90;;;;;;5032153;28;20436;-66
2021/04/20 02:39:09;;;;;;;61.00;37.10;;;8.40;99.90;;;;;;5029849;28;20447;-67
2021/04/20 02:41:38;;;;;;;60.27;36.53;;;8.50;99.90;;;;;;5030732;28;21274;-67
2021/04/20 02:44:07;;;;;;;57.13;36.10;;;8.50;99.90;;;;;;5029941;28;20795;-68
2021/04/20 02:46:34;;;;;;;58.27;35.90;;;8.50;99.90;;;;;;5030030;28;20442;-67
2021/04/20 02:49:00;;;;;;;54.47;34.47;;;8.50;99.90;;;;;;5029772;28;20471;-68
2021/04/20 02:51:25;;;;;;;56.47;35.63;;;8.60;99.90;;;;;;5029440;28;20460;-67
2021/04/20 02:53:51;;;;;;;57.60;35.53;;;8.60;99.90;;;;;;5030646;28;20199;-66
2021/04/20 02:56:18;;;;;;;55.63;36.10;;;8.60;99.90;;;;;;5029624;28;20624;-68
2021/04/20 02:58:45;;;;;;;55.70;35.00;;;8.60;99.90;;;;;;5017618;28;20424;-68
2021/04/20 03:01:17;;;;;;;50.70;35.20;;;8.60;99.90;;;;;;5032697;28;21275;-69
2021/04/20 03:03:47;;;;;;;54.07;34.40;;;8.70;99.90;;;;;;5030098;28;20814;-68
2021/04/20 03:06:13;;;;;;;56.20;35.60;;;8.70;99.90;;;;;;5029241;28;20957;-67
2021/04/20 03:08:42;;;;;;;59.20;35.20;;;8.70;99.90;;;;;;5030118;28;20841;-67
2021/04/20 03:11:29;;;;;;;58.10;35.80;;;8.70;99.90;;;;;;5027464;28;20796;-67
2021/04/20 03:13:59;;;;;;;56.87;35.73;;;8.70;99.90;;;;;;5030449;28;20448;-68
2021/04/20 03:16:25;;;;;;;51.93;34.40;;;8.80;99.90;;;;;;5027842;28;20435;-67
2021/04/20 03:18:51;;;;;;;53.13;35.33;;;8.80;99.90;;;;;;5029186;28;20437;-68
2021/04/20 03:21:17;;;;;;;58.67;35.63;;;8.80;99.90;;;;;;5031868;28;20421;-67
2021/04/20 03:23:44;;;;;;;53.00;33.83;;;8.80;99.90;;;;;;5029645;28;20201;-66
2021/04/20 03:26:35;;;;;;;52.47;34.73;;;8.90;99.90;;;;;;5046037;28;20435;-68
2021/04/20 03:29:04;;;;;;;55.50;34.30;;;8.90;99.90;;;;;;5017181;28;20449;-68
2021/04/20 03:31:30;;;;;;;54.77;35.00;;;8.90;99.90;;;;;;5029172;28;20492;-69
2021/04/20 03:34:22;;;;;;;57.00;34.67;;;8.90;99.90;;;;;;5030763;28;20490;-68
2021/04/20 03:37:08;;;;;;;57.87;34.87;;;8.90;99.90;;;;;;5026189;28;20575;-68
2021/04/20 03:39:45;;;;;;;55.83;35.07;;;8.90;99.90;;;;;;5030206;28;20481;-69
2021/04/20 03:42:24;;;;;;;59.20;36.00;;;9.00;99.90;;;;;;5019841;28;20444;-68
2021/04/20 03:45:21;;;;;;;54.40;34.27;;;9.00;99.90;;;;;;5045278;28;20458;-67
2021/04/20 03:47:59;;;;;;;54.57;34.50;;;9.00;99.90;;;;;;5021880;28;20484;-68
2021/04/20 03:50:29;;;;;;;67.03;40.93;;;9.10;99.90;;;;;;5029783;28;20436;-68
2021/04/20 03:52:58;;;;;;;81.30;50.77;;;9.10;99.90;;;;;;5031044;28;20465;-68
2021/04/20 03:55:27;;;;;;;85.47;51.83;;;9.10;99.90;;;;;;5029783;28;20447;-68
2021/04/20 03:57:54;;;;;;;71.97;45.67;;;9.10;99.90;;;;;;5030270;28;20437;-68
2021/04/20 04:00:22;;;;;;;99.33;62.50;;;9.10;99.90;;;;;;5043833;28;20445;-67
2021/04/20 04:02:48;;;;;;;99.53;63.20;;;9.10;99.90;;;;;;5029944;28;20492;-68
2021/04/20 04:05:19;;;;;;;98.63;62.50;;;9.10;99.90;;;;;;5028766;28;20437;-69
2021/04/20 04:07:49;;;;;;;102.23;65.17;;;9.10;99.90;;;;;;5044214;28;20439;-67
2021/04/20 04:10:17;;;;;;;94.67;59.50;;;9.10;99.90;;;;;;5030301;28;20445;-68
2021/04/20 04:12:47;;;;;;;79.20;52.30;;;9.10;99.90;;;;;;5022227;28;20465;-66
2021/04/20 04:15:15;;;;;;;79.53;49.90;;;9.20;99.90;;;;;;5024602;28;20433;-65
2021/04/20 04:17:44;;;;;;;70.07;45.67;;;9.10;99.90;;;;;;5017660;28;20452;-66
2021/04/20 04:20:13;;;;;;;70.90;45.30;;;9.10;99.90;;;;;;5018826;28;20434;-66
2021/04/20 04:22:47;;;;;;;68.83;43.10;;;9.10;99.90;;;;;;5012529;28;20850;-65
2021/04/20 04:25:14;;;;;;;73.70;44.33;;;9.20;99.90;;;;;;5010303;28;20484;-67
2021/04/20 04:27:48;;;;;;;68.30;42.20;;;9.10;99.90;;;;;;5006571;28;20449;-67
2021/04/20 04:30:15;;;;;;;62.97;41.10;;;9.00;99.90;;;;;;5005786;28;21008;-65
2021/04/20 04:32:43;;;;;;;65.40;40.30;;;9.00;99.90;;;;;;5005534;28;20993;-66
2021/04/20 04:35:10;;;;;;;62.40;40.37;;;9.00;99.90;;;;;;5019212;28;20464;-65
2021/04/20 04:37:37;;;;;;;63.30;41.10;;;9.00;99.90;;;;;;5007826;28;21381;-67
2021/04/20 04:40:07;;;;;;;65.17;41.80;;;9.10;99.90;;;;;;5016955;28;20433;-67
2021/04/20 04:42:33;;;;;;;63.30;41.97;;;9.10;99.90;;;;;;5026230;28;20448;-67
2021/04/20 04:45:02;;;;;;;65.17;40.73;;;9.10;99.90;;;;;;5043410;28;20449;-67
2021/04/20 04:47:28;;;;;;;58.43;38.20;;;9.10;99.90;;;;;;5019778;28;20441;-67
2021/04/20 04:49:59;;;;;;;54.90;35.23;;;9.10;99.90;;;;;;5029942;28;20418;-67
2021/04/20 04:52:26;;;;;;;52.17;34.67;;;9.10;99.90;;;;;;5029991;28;20460;-67
2021/04/20 04:54:51;;;;;;;51.50;35.40;;;9.20;99.90;;;;;;5019107;28;20915;-65
2021/04/20 04:57:19;;;;;;;59.20;36.10;;;9.20;99.90;;;;;;5026183;28;20474;-66
2021/04/20 04:59:47;;;;;;;55.23;34.30;;;9.20;99.90;;;;;;5029954;28;20178;-66
2021/04/20 05:02:13;;;;;;;54.57;35.20;;;9.20;99.90;;;;;;5029221;28;20918;-65
2021/04/20 05:04:38;;;;;;;55.63;35.07;;;9.20;99.90;;;;;;5029411;28;20429;-67
2021/04/20 05:07:04;;;;;;;50.77;33.77;;;9.30;99.90;;;;;;5024387;28;20493;-67
2021/04/20 05:09:29;;;;;;;52.07;33.20;;;9.30;99.90;;;;;;5029678;28;20261;-67
2021/04/20 05:11:55;;;;;;;54.20;34.80;;;9.30;99.90;;;;;;5019313;28;20825;-68
2021/04/20 05:14:22;;;;;;;50.13;34.60;;;9.30;99.90;;;;;;5024011;28;20178;-66
2021/04/20 05:16:53;;;;;;;51.83;34.17;;;9.20;99.90;;;;;;5021401;28;20179;-66
2021/04/20 05:19:30;;;;;;;56.10;35.90;;;9.20;99.90;;;;;;5029617;28;20494;-65
2021/04/20 05:21:59;;;;;;;51.23;34.97;;;9.30;99.90;;;;;;5027958;28;20481;-67
2021/04/20 05:24:26;;;;;;;52.63;34.87;;;9.30;99.90;;;;;;5029691;28;20424;-67
2021/04/20 05:26:52;;;;;;;53.80;36.07;;;9.30;99.90;;;;;;5044529;28;20440;-67
2021/04/20 05:29:18;;;;;;;47.33;31.87;;;9.30;99.90;;;;;;5027504;28;20465;-66
2021/04/20 05:31:45;;;;;;;50.07;32.60;;;9.40;99.90;;;;;;5029254;28;20420;-66
2021/04/20 05:34:11;;;;;;;47.00;31.20;;;9.50;99.90;;;;;;5027525;28;20437;-65
2021/04/20 05:36:37;;;;;;;52.60;33.73;;;9.60;99.90;;;;;;5029458;28;21271;-67
2021/04/20 05:39:06;;;;;;;45.30;31.50;;;9.60;99.90;;;;;;5029535;28;20413;-67
2021/04/20 05:41:33;;;;;;;45.90;31.77;;;9.70;99.90;;;;;;5013241;28;20438;-67
2021/04/20 05:44:02;;;;;;;44.97;30.23;;;9.80;99.90;;;;;;5031377;28;20445;-67
2021/04/20 05:46:28;;;;;;;48.17;32.40;;;9.90;99.90;;;;;;5029454;28;20421;-67
2021/04/20 05:48:55;;;;;;;46.17;31.57;;;9.90;99.90;;;;;;5028608;28;20441;-66
2021/04/20 05:51:23;;;;;;;44.70;30.13;;;10.00;99.90;;;;;;5044697;28;20418;-67
2021/04/20 05:53:51;;;;;;;46.37;32.17;;;10.00;99.90;;;;;;5028501;28;20482;-67
2021/04/20 05:56:19;;;;;;;46.00;31.60;;;10.10;99.90;;;;;;5028880;28;20540;-67
2021/04/20 05:58:46;;;;;;;41.80;28.93;;;10.20;99.90;;;;;;5017569;28;20427;-66
2021/04/20 06:01:12;;;;;;;42.70;29.50;;;10.30;99.90;;;;;;5009634;28;20418;-66
2021/04/20 06:03:40;;;;;;;42.90;31.13;;;10.50;99.90;;;;;;5013511;28;20432;-67
2021/04/20 06:06:07;;;;;;;47.07;32.20;;;10.60;99.90;;;;;;5029222;28;20182;-65
2021/04/20 06:08:37;;;;;;;44.03;32.00;;;10.70;99.90;;;;;;5027178;28;20472;-72
2021/04/20 06:11:04;;;;;;;43.80;30.33;;;10.80;99.90;;;;;;5028682;28;20432;-72
2021/04/20 06:13:30;;;;;;;39.33;30.17;;;10.80;99.90;;;;;;5028978;28;20622;-73
2021/04/20 06:15:56;;;;;;;45.60;31.93;;;10.90;99.90;;;;;;5035551;28;20915;-72
2021/04/20 06:18:26;;;;;;;42.63;30.20;;;10.90;99.90;;;;;;5028635;28;20504;-71
2021/04/20 06:20:54;;;;;;;43.23;30.47;;;10.80;99.90;;;;;;5028564;28;20409;-72
2021/04/20 06:23:20;;;;;;;44.47;31.07;;;10.90;99.90;;;;;;5028881;28;20421;-72
2021/04/20 06:25:46;;;;;;;42.37;30.57;;;11.00;99.90;;;;;;5028071;28;20528;-72
2021/04/20 06:28:13;;;;;;;41.57;30.37;;;11.10;99.90;;;;;;5028641;28;20504;-72
2021/04/20 06:30:38;;;;;;;41.27;28.50;;;11.20;99.90;;;;;;5028334;28;21046;-72
2021/04/20 06:33:06;;;;;;;45.30;31.10;;;11.30;99.90;;;;;;5028383;28;20476;-72
2021/04/20 06:35:33;;;;;;;46.90;32.53;;;11.40;99.90;;;;;;5028001;28;20191;-70
2021/04/20 06:38:00;;;;;;;43.30;32.03;;;11.50;99.90;;;;;;5028359;28;20425;-72
2021/04/20 06:40:31;;;;;;;46.20;33.10;;;11.60;99.90;;;;;;5028538;28;20417;-71
2021/04/20 06:43:11;;;;;;;40.77;30.13;;;11.70;96.10;;;;;;5028191;28;20488;-72
2021/04/20 06:45:48;;;;;;;43.53;33.30;;;11.80;95.50;;;;;;5027393;28;20515;-71
2021/04/20 06:48:37;;;;;;;44.50;31.90;;;11.90;91.40;;;;;;5027151;28;20837;-73
2021/04/20 06:51:18;;;;;;;44.27;32.03;;;11.90;92.70;;;;;;5028025;28;20962;-70
2021/04/20 06:53:47;;;;;;;47.03;33.50;;;12.00;94.50;;;;;;5028039;28;20460;-72
2021/04/20 06:56:36;;;;;;;48.17;32.10;;;12.20;96.20;;;;;;5027684;28;20496;-66
2021/04/20 06:59:11;;;;;;;47.73;32.93;;;12.20;91.80;;;;;;5025612;28;20504;-67
2021/04/20 07:01:48;;;;;;;39.73;28.77;;;12.20;93.60;;;;;;5027935;28;20444;-70
2021/04/20 07:04:39;;;;;;;46.33;30.10;;;12.40;92.50;;;;;;5025326;28;20773;-66
2021/04/20 07:07:27;;;;;;;47.00;30.67;;;12.60;83.40;;;;;;5025550;28;20433;-66
2021/04/20 07:10:06;;;;;;;40.90;30.33;;;12.70;77.40;;;;;;5035999;28;20477;-65
2021/04/20 07:12:34;;;;;;;40.87;29.87;;;13.00;53.40;;;;;;5031703;28;20568;-71
2021/04/20 07:15:02;;;;;;;39.70;30.13;;;13.20;37.90;;;;;;5032386;28;20435;-66
2021/04/20 07:17:47;;;;;;;38.00;29.50;;;13.20;21.20;;;;;;5031727;28;20452;-65
2021/04/20 07:20:35;;;;;;;43.37;29.70;;;13.00;31.60;;;;;;5026604;28;20540;-70
2021/04/20 07:23:22;;;;;;;38.70;27.83;;;13.00;41.20;;;;;;5020458;28;20427;-71
2021/04/20 07:26:16;;;;;;;38.43;28.77;;;13.00;40.90;;;;;;5030849;28;20428;-71
2021/04/20 07:29:04;;;;;;;40.30;28.60;;;13.10;28.20;;;;;;5030394;28;20417;-69
2021/04/20 07:31:47;;;;;;;38.47;27.33;;;13.20;23.30;;;;;;5030592;28;20432;-65
2021/04/20 07:34:25;;;;;;;33.73;27.00;;;13.30;22.20;;;;;;5030627;28;20453;-65
2021/04/20 07:37:42;;;;;;;37.93;28.80;;;13.40;17.10;;;;;;5029930;28;20435;-65
2021/04/20 07:40:24;;;;;;;36.00;28.17;;;13.20;17.40;;;;;;4996782;28;20438;-66
2021/04/20 07:43:01;;;;;;;37.43;28.50;;;13.20;4.30;;;;;;5030425;28;20479;-65
2021/04/20 07:45:52;;;;;;;40.70;29.00;;;13.20;6.20;;;;;;5023985;28;20420;-65
2021/04/20 07:48:34;;;;;;;35.00;26.63;;;13.20;17.50;;;;;;5030269;28;20419;-66
2021/04/20 07:51:07;;;;;;;37.20;28.03;;;13.10;1.00;;;;;;5030340;28;20419;-71
2021/04/20 07:53:50;;;;;;;42.97;30.23;;;13.20;15.50;;;;;;5030110;28;21022;-66
2021/04/20 07:56:44;;;;;;;42.50;31.30;;;13.20;32.40;;;;;;5030227;28;20413;-66
2021/04/20 07:59:16;;;;;;;38.60;28.90;;;13.30;40.20;;;;;;4990063;28;20435;-70
2021/04/20 08:01:49;;;;;;;43.83;30.87;;;13.50;36.90;;;;;;5029383;28;21146;-65
2021/04/20 08:04:41;;;;;;;44.10;30.63;;;13.60;21.70;;;;;;5029922;28;20424;-66
2021/04/20 08:07:11;;;;;;;41.30;30.27;;;13.80;29.00;;;;;;5020630;28;20426;-70
2021/04/20 08:09:40;;;;;;;38.77;30.30;;;14.10;21.50;;;;;;5030170;28;20508;-71
2021/04/20 08:12:11;;;;;;;40.73;29.80;;;14.40;1.00;;;;;;5030029;28;20561;-70
2021/04/20 08:14:46;;;;;;;41.23;29.47;;;14.50;1.00;;;;;;5037334;28;20808;-71
2021/04/20 08:17:21;;;;;;;37.57;30.47;;;14.80;1.00;;;;;;5029521;28;20879;-70
2021/04/20 08:19:54;;;;;;;40.57;29.37;;;14.80;1.00;;;;;;5029514;28;20437;-72
2021/04/20 08:22:20;;;;;;;40.43;30.10;;;14.90;1.00;;;;;;5029393;28;20446;-70
2021/04/20 08:24:59;;;;;;;39.00;30.53;;;14.90;1.00;;;;;;5029503;28;20454;-69
2021/04/20 08:27:43;;;;;;;41.87;30.60;;;15.00;1.00;;;;;;5029773;28;20183;-66
2021/04/20 08:30:19;;;;;;;39.83;31.93;;;15.30;1.00;;;;;;5022837;28;20496;-65
2021/04/20 08:32:48;;;;;;;42.10;31.20;;;15.40;1.00;;;;;;5029061;28;20490;-65
2021/04/20 08:35:20;;;;;;;36.90;30.20;;;15.70;1.00;;;;;;5029692;28;20424;-70
2021/04/20 08:37:58;;;;;;;37.67;29.87;;;15.60;1.00;;;;;;5029886;28;20419;-66
2021/04/20 08:40:26;;;;;;;37.53;31.00;;;15.60;1.00;;;;;;5029285;28;20470;-66
2021/04/20 08:43:24;;;;;;;35.80;29.90;;;15.80;1.00;;;;;;5045210;28;20423;-66
2021/04/20 08:46:06;;;;;;;36.93;30.20;;;16.10;1.00;;;;;;5029361;28;20420;-66
2021/04/20 08:48:53;;;;;;;36.80;29.93;;;16.00;1.00;;;;;;5029532;28;20886;-66
2021/04/20 08:51:48;;;;;;;37.70;30.03;;;16.10;1.00;;;;;;5015097;28;20510;-66
2021/04/20 08:54:49;;;;;;;33.07;28.80;;;16.20;1.00;;;;;;5026718;28;20435;-66
2021/04/20 08:57:41;;;;;;;39.10;30.63;;;16.40;1.00;;;;;;4989664;28;20425;-64
2021/04/20 09:00:35;;;;;;;36.60;30.57;;;16.40;1.00;;;;;;5028099;28;20428;-65
2021/04/20 09:03:04;;;;;;;39.40;30.60;;;16.40;1.00;;;;;;5018300;28;20424;-65
2021/04/20 09:05:32;;;;;;;34.50;30.30;;;16.20;1.00;;;;;;5029677;28;20961;-65
2021/04/20 09:08:35;;;;;;;37.13;30.10;;;16.10;1.00;;;;;;5029239;28;20493;-65
2021/04/20 09:11:20;;;;;;;38.90;31.97;;;16.30;1.00;;;;;;5026537;28;20851;-65
2021/04/20 09:14:08;;;;;;;38.83;29.70;;;16.50;1.00;;;;;;5029721;28;20555;-65
2021/04/20 09:16:50;;;;;;;34.13;28.27;;;16.60;1.00;;;;;;5029280;28;20432;-65
2021/04/20 09:19:25;;;;;;;33.87;30.17;;;17.30;1.00;;;;;;5027856;28;20429;-64
2021/04/20 09:22:05;;;;;;;33.30;28.43;;;17.80;99.90;;;;;;5028420;28;20475;-65
2021/04/20 09:24:45;;;;;;;32.30;27.97;;;18.40;99.90;;;;;;5029158;28;20420;-66
2021/04/20 09:27:23;;;;;;;32.20;28.70;;;19.10;1.00;;;;;;5023729;28;20429;-66
2021/04/20 09:30:02;;;;;;;33.07;29.57;;;20.00;1.00;;;;;;5027944;28;20461;-66
2021/04/20 09:32:35;;;;;;;32.43;28.90;;;20.50;1.00;;;;;;5028897;28;20464;-67
2021/04/20 09:35:02;;;;;;;33.03;29.53;;;20.70;1.00;;;;;;5026932;28;20433;-66
2021/04/20 09:37:32;;;;;;;31.67;28.37;;;21.20;1.00;;;;;;5045032;28;20460;-67
2021/04/20 09:40:00;;;;;;;31.23;27.93;;;22.00;1.00;;;;;;5030306;28;20417;-67
2021/04/20 09:42:27;;;;;;;31.63;28.60;;;22.40;1.00;;;;;;5028893;28;20433;-67
2021/04/20 09:45:11;;;;;;;31.07;27.87;;;22.40;1.00;;;;;;5029666;28;20440;-67
2021/04/20 09:47:55;;;;;;;33.53;30.27;;;22.90;1.00;;;;;;5029358;28;20417;-67
2021/04/20 09:50:24;;;;;;;30.57;27.53;;;22.40;1.00;;;;;;5022875;28;20436;-67
2021/04/20 09:53:14;;;;;;;32.37;29.27;;;22.70;99.90;;;;;;5030118;28;20503;-68
2021/04/20 09:55:49;;;;;;;31.07;27.97;;;22.70;1.00;;;;;;5029119;28;20502;-67
2021/04/20 09:58:19;;;;;;;31.50;28.30;;;22.80;1.00;;;;;;5030048;28;20436;-64
2021/04/20 10:00:46;;;;;;;29.20;26.30;;;22.10;1.00;;;;;;5026594;28;20858;-67
2021/04/20 10:03:21;;;;;;;29.63;26.50;;;22.50;1.00;;;;;;5033041;28;20424;-66
2021/04/20 10:06:09;;;;;;;30.40;27.40;;;22.50;1.00;;;;;;5027542;28;20424;-67
2021/04/20 10:09:19;;;;;;;29.97;27.00;;;23.10;1.00;;;;;;5029466;28;20444;-66
2021/04/20 10:12:06;;;;;;;30.23;27.33;;;23.20;1.00;;;;;;5028439;28;20436;-66
2021/04/20 10:14:52;;;;;;;28.03;25.33;;;23.50;1.00;;;;;;5028280;28;20570;-66
2021/04/20 10:17:26;;;;;;;24.87;22.57;;;22.80;1.00;;;;;;5030015;28;20515;-67
2021/04/20 10:20:06;;;;;;;25.27;22.67;;;22.80;1.00;;;;;;5028622;28;20853;-65
2021/04/20 10:22:52;;;;;;;28.30;25.50;;;23.20;99.90;;;;;;5029785;28;20428;-66
2021/04/20 10:25:26;;;;;;;25.83;23.43;;;23.10;99.90;;;;;;5027708;28;20459;-66
2021/04/20 10:28:00;;;;;;;27.00;24.50;;;22.50;1.00;;;;;;5017124;28;20448;-67
2021/04/20 10:30:38;;;;;;;25.33;22.93;;;22.60;99.90;;;;;;5029598;28;20932;-66
2021/04/20 10:33:04;;;;;;;25.70;23.33;;;23.60;99.90;;;;;;5025173;28;20472;-66
2021/04/20 10:35:34;;;;;;;25.47;23.17;;;24.10;99.90;;;;;;5029335;28;20425;-68
2021/04/20 10:38:01;;;;;;;25.87;23.43;;;24.10;99.90;;;;;;5027954;28;20193;-67
2021/04/20 10:40:35;;;;;;;26.80;24.30;;;24.30;99.90;;;;;;5026489;28;20433;-67
2021/04/20 10:43:16;;;;;;;26.37;24.07;;;24.70;99.90;;;;;;5030746;28;20427;-67
2021/04/20 10:45:42;;;;;;;24.83;22.63;;;25.20;99.90;;;;;;5031688;28;20847;-66
2021/04/20 10:48:09;;;;;;;27.63;25.07;;;24.40;99.90;;;;;;5032129;28;20425;-67
2021/04/20 10:50:38;;;;;;;26.23;23.73;;;23.40;99.90;;;;;;5031856;28;20420;-65
2021/04/20 10:53:12;;;;;;;27.03;23.90;;;23.30;99.90;;;;;;5021853;28;20467;-68
2021/04/20 10:56:14;;;;;;;25.90;23.57;;;23.20;99.90;;;;;;5031767;28;20412;-67
2021/04/20 10:58:49;;;;;;;24.07;21.80;;;22.40;1.00;;;;;;5031524;28;20844;-66
2021/04/20 11:01:19;;;;;;;25.07;22.67;;;22.40;1.00;;;;;;5046078;28;20440;-67
2021/04/20 11:03:47;;;;;;;21.70;19.77;;;23.40;99.90;;;;;;5028494;28;20523;-65
2021/04/20 11:06:51;;;;;;;24.20;22.10;;;24.60;99.90;;;;;;5024509;28;20817;-67
2021/04/20 11:09:16;;;;;;;23.17;21.13;;;24.70;99.90;;;;;;5029672;28;20441;-68
2021/04/20 11:11:46;;;;;;;24.20;21.97;;;25.10;99.90;;;;;;5031383;28;20467;-67
2021/04/20 11:14:12;;;;;;;24.13;22.13;;;25.90;99.90;;;;;;5036365;28;20917;-67
2021/04/20 11:16:48;;;;;;;23.10;21.10;;;26.70;99.90;;;;;;5034957;28;20562;-66
2021/04/20 11:19:19;;;;;;;24.50;22.27;;;26.30;99.90;;;;;;5030743;28;20174;-66
2021/04/20 11:21:45;;;;;;;23.27;21.17;;;26.00;99.90;;;;;;5029884;28;20413;-65
2021/04/20 11:24:21;;;;;;;22.33;20.23;;;25.30;99.90;;;;;;5028476;28;20424;-70
2021/04/20 11:26:57;;;;;;;23.60;21.40;;;24.30;99.90;;;;;;5018230;28;20413;-67
2021/04/20 11:29:43;;;;;;;24.50;22.33;;;23.40;99.90;;;;;;5030634;28;20472;-67
2021/04/20 11:32:16;;;;;;;23.27;21.17;;;23.90;99.90;;;;;;5030532;28;20828;-69
2021/04/20 11:34:46;;;;;;;23.03;20.97;;;24.80;99.90;;;;;;5030623;28;20478;-67
2021/04/20 11:37:18;;;;;;;24.07;21.97;;;25.10;99.90;;;;;;5030485;28;20417;-67
2021/04/20 11:40:07;;;;;;;23.40;21.30;;;25.20;99.90;;;;;;5030359;28;20828;-70
2021/04/20 11:42:55;;;;;;;23.00;21.00;;;25.30;99.90;;;;;;5021295;28;20428;-68
2021/04/20 11:45:25;;;;;;;23.30;21.07;;;25.80;99.90;;;;;;5023587;28;20459;-67
2021/04/20 11:48:09;;;;;;;21.70;19.60;;;25.60;99.90;;;;;;5030509;28;20425;-67
2021/04/20 11:50:36;;;;;;;21.33;19.43;;;25.50;99.90;;;;;;5030508;28;20428;-68
2021/04/20 11:53:08;;;;;;;20.77;19.07;;;25.60;99.90;;;;;;5029546;28;20464;-66
2021/04/20 11:55:46;;;;;;;22.37;20.40;;;26.40;99.90;;;;;;5030154;28;20436;-66
2021/04/20 11:58:26;;;;;;;22.97;21.03;;;27.80;99.90;;;;;;5029893;28;20420;-67
2021/04/20 12:00:58;;;;;;;20.30;18.50;;;27.20;99.90;;;;;;5030287;28;20413;-67
2021/04/20 12:03:24;;;;;;;19.93;18.33;;;26.70;99.90;;;;;;5030268;28;20448;-71
2021/04/20 12:05:54;;;;;;;22.50;20.60;;;25.90;99.90;;;;;;5030445;28;20410;-67
2021/04/20 12:08:40;;;;;;;21.67;19.90;;;25.00;99.90;;;;;;5029945;28;20417;-71
2021/04/20 12:11:07;;;;;;;21.23;19.53;;;25.50;99.90;;;;;;5030166;28;20474;-67
2021/04/20 12:13:34;;;;;;;24.37;22.27;;;26.00;99.90;;;;;;5044115;28;20458;-67
2021/04/20 12:16:04;;;;;;;21.40;19.57;;;27.00;99.90;;;;;;5037188;28;20428;-64
2021/04/20 12:18:31;;;;;;;22.40;20.60;;;26.80;99.90;;;;;;5029705;28;20962;-70
2021/04/20 12:21:09;;;;;;;22.13;20.23;;;26.20;99.90;;;;;;5029237;28;20520;-70
2021/04/20 12:23:37;;;;;;;22.63;20.63;;;25.50;99.90;;;;;;5025143;28;20441;-70
2021/04/20 12:26:04;;;;;;;20.57;18.67;;;24.70;99.90;;;;;;5029660;28;20425;-70
2021/04/20 12:28:33;;;;;;;20.40;18.53;;;24.10;99.90;;;;;;5029895;28;20516;-71
2021/04/20 12:30:59;;;;;;;21.47;19.60;;;23.30;99.90;;;;;;5022604;28;20457;-70
2021/04/20 12:33:30;;;;;;;23.03;20.93;;;23.10;99.90;;;;;;5029493;28;20475;-70
2021/04/20 12:35:57;;;;;;;26.10;23.80;;;22.90;99.90;;;;;;5029800;28;20182;-70
2021/04/20 12:38:26;;;;;;;24.27;22.07;;;22.50;1.00;;;;;;5029445;28;21194;-66
2021/04/20 12:41:01;;;;;;;23.60;21.50;;;22.10;1.00;;;;;;5028863;28;20402;-70
2021/04/20 12:43:30;;;;;;;23.90;21.80;;;21.70;1.00;;;;;;5029639;28;20471;-66
2021/04/20 12:46:08;;;;;;;24.40;22.13;;;21.60;1.00;;;;;;5028503;28;20448;-62
2021/04/20 12:48:34;;;;;;;26.43;23.73;;;21.40;1.00;;;;;;5029332;28;20496;-62
2021/04/20 12:51:01;;;;;;;24.40;22.10;;;21.00;1.00;;;;;;5029139;28;20441;-60
2021/04/20 12:53:29;;;;;;;27.40;24.67;;;20.70;1.00;;;;;;5029278;28;20485;-60
2021/04/20 12:55:55;;;;;;;26.87;24.33;;;20.40;1.00;;;;;;5019739;28;20809;-60
2021/04/20 12:58:28;;;;;;;25.00;22.50;;;20.00;1.00;;;;;;5029537;28;20789;-60
2021/04/20 13:01:00;;;;;;;26.13;23.63;;;19.90;99.90;;;;;;5020481;28;20532;-60